sensor_id;sensor_type;location;lat;lon;timestamp;P1;durP1;ratioP1;P2;durP2;ratioP2
11422;SDS011;5768;51.476;7.210;2023-02-04T00:01:25;18.10;;;3.80;;
11422;SDS011;5768;51.476;7.210;2023-02-04T00:06:29;17.20;;;4.00;;
11422;SDS011;5768;51.476;7.210;2023-02-04T00:11:32;10.77;;;2.73;;
11422;SDS011;5768;51.476;7.210;2023-02-04T00:16:34;19.47;;;4.53;;
11422;SDS011;5768;51.476;7.210;2023-02-04T00:21:39;13.60;;;2.97;;
11422;SDS011;5768;51.476;7.210;2023-02-04T00:26:42;17.80;;;3.90;;
11422;SDS011;5768;51.476;7.210;2023-02-04T00:31:44;13.00;;;4.00;;
11422;SDS011;5768;51.476;7.210;2023-02-04T00:36:48;13.80;;;3.90;;
11422;SDS011;5768;51.476;7.210;2023-02-04T00:41:51;14.87;;;3.23;;
11422;SDS011;5768;51.476;7.210;2023-02-04T00:46:53;16.23;;;4.43;;
11422;SDS011;5768;51.476;7.210;2023-02-04T00:51:57;18.50;;;4.20;;
11422;SDS011;5768;51.476;7.210;2023-02-04T00:57:00;16.60;;;3.90;;
11422;SDS011;5768;51.476;7.210;2023-02-04T01:02:02;19.97;;;4.60;;
11422;SDS011;5768;51.476;7.210;2023-02-04T01:07:05;15.93;;;3.97;;
11422;SDS011;5768;51.476;7.210;2023-02-04T01:12:07;16.27;;;3.97;;
11422;SDS011;5768;51.476;7.210;2023-02-04T01:17:09;17.50;;;3.83;;
11422;SDS011;5768;51.476;7.210;2023-02-04T01:22:13;15.83;;;4.23;;
11422;SDS011;5768;51.476;7.210;2023-02-04T01:27:16;15.13;;;3.83;;
11422;SDS011;5768;51.476;7.210;2023-02-04T01:32:18;19.40;;;3.90;;
11422;SDS011;5768;51.476;7.210;2023-02-04T01:37:22;11.80;;;3.03;;
11422;SDS011;5768;51.476;7.210;2023-02-04T01:42:24;14.80;;;3.13;;
11422;SDS011;5768;51.476;7.210;2023-02-04T01:47:26;12.77;;;3.50;;
11422;SDS011;5768;51.476;7.210;2023-02-04T01:52:33;14.07;;;3.63;;
11422;SDS011;5768;51.476;7.210;2023-02-04T01:57:38;14.77;;;3.73;;
11422;SDS011;5768;51.476;7.210;2023-02-04T02:02:42;15.47;;;3.50;;
11422;SDS011;5768;51.476;7.210;2023-02-04T02:07:48;21.37;;;4.63;;
11422;SDS011;5768;51.476;7.210;2023-02-04T02:12:53;16.43;;;3.73;;
11422;SDS011;5768;51.476;7.210;2023-02-04T02:17:56;15.53;;;3.97;;
11422;SDS011;5768;51.476;7.210;2023-02-04T02:23:01;15.43;;;3.87;;
11422;SDS011;5768;51.476;7.210;2023-02-04T02:28:14;15.40;;;4.23;;
11422;SDS011;5768;51.476;7.210;2023-02-04T02:33:19;16.03;;;4.57;;
11422;SDS011;5768;51.476;7.210;2023-02-04T02:38:22;16.47;;;4.10;;
11422;SDS011;5768;51.476;7.210;2023-02-04T02:43:26;16.17;;;4.17;;
11422;SDS011;5768;51.476;7.210;2023-02-04T02:48:30;18.17;;;4.13;;
11422;SDS011;5768;51.476;7.210;2023-02-04T02:53:32;15.97;;;4.00;;
11422;SDS011;5768;51.476;7.210;2023-02-04T02:58:36;17.70;;;4.00;;
11422;SDS011;5768;51.476;7.210;2023-02-04T03:03:39;23.63;;;4.23;;
11422;SDS011;5768;51.476;7.210;2023-02-04T03:08:51;19.70;;;4.17;;
11422;SDS011;5768;51.476;7.210;2023-02-04T03:13:58;17.57;;;3.97;;
11422;SDS011;5768;51.476;7.210;2023-02-04T03:19:01;18.93;;;4.27;;
11422;SDS011;5768;51.476;7.210;2023-02-04T03:24:06;21.33;;;4.40;;
11422;SDS011;5768;51.476;7.210;2023-02-04T03:29:11;19.47;;;4.83;;
11422;SDS011;5768;51.476;7.210;2023-02-04T03:34:13;18.70;;;4.67;;
11422;SDS011;5768;51.476;7.210;2023-02-04T03:39:16;19.20;;;4.50;;
11422;SDS011;5768;51.476;7.210;2023-02-04T03:44:19;13.37;;;3.63;;
11422;SDS011;5768;51.476;7.210;2023-02-04T03:49:26;19.63;;;3.83;;
11422;SDS011;5768;51.476;7.210;2023-02-04T03:54:28;16.13;;;4.27;;
11422;SDS011;5768;51.476;7.210;2023-02-04T03:59:32;18.90;;;4.50;;
11422;SDS011;5768;51.476;7.210;2023-02-04T04:04:34;15.70;;;3.80;;
11422;SDS011;5768;51.476;7.210;2023-02-04T04:09:37;13.80;;;3.70;;
11422;SDS011;5768;51.476;7.210;2023-02-04T04:14:41;16.23;;;3.93;;
11422;SDS011;5768;51.476;7.210;2023-02-04T04:19:46;14.67;;;4.23;;
11422;SDS011;5768;51.476;7.210;2023-02-04T04:24:48;14.77;;;3.93;;
11422;SDS011;5768;51.476;7.210;2023-02-04T04:29:52;15.50;;;4.53;;
11422;SDS011;5768;51.476;7.210;2023-02-04T04:34:54;26.37;;;4.77;;
11422;SDS011;5768;51.476;7.210;2023-02-04T04:39:56;19.03;;;4.83;;
11422;SDS011;5768;51.476;7.210;2023-02-04T04:45:01;16.37;;;3.83;;
11422;SDS011;5768;51.476;7.210;2023-02-04T04:50:06;20.40;;;4.93;;
11422;SDS011;5768;51.476;7.210;2023-02-04T04:55:09;18.07;;;4.17;;
11422;SDS011;5768;51.476;7.210;2023-02-04T05:00:15;17.17;;;4.40;;
11422;SDS011;5768;51.476;7.210;2023-02-04T05:05:20;17.00;;;4.30;;
11422;SDS011;5768;51.476;7.210;2023-02-04T05:10:28;19.07;;;4.60;;
11422;SDS011;5768;51.476;7.210;2023-02-04T05:15:32;19.87;;;4.37;;
11422;SDS011;5768;51.476;7.210;2023-02-04T05:20:34;15.57;;;4.23;;
11422;SDS011;5768;51.476;7.210;2023-02-04T05:25:36;22.80;;;4.40;;
11422;SDS011;5768;51.476;7.210;2023-02-04T05:30:41;20.27;;;5.57;;
11422;SDS011;5768;51.476;7.210;2023-02-04T05:35:43;18.83;;;4.90;;
11422;SDS011;5768;51.476;7.210;2023-02-04T05:40:45;18.03;;;4.50;;
11422;SDS011;5768;51.476;7.210;2023-02-04T05:45:48;21.50;;;4.63;;
11422;SDS011;5768;51.476;7.210;2023-02-04T05:50:50;18.30;;;4.17;;
11422;SDS011;5768;51.476;7.210;2023-02-04T05:55:53;20.97;;;4.40;;
11422;SDS011;5768;51.476;7.210;2023-02-04T06:00:57;16.33;;;4.13;;
11422;SDS011;5768;51.476;7.210;2023-02-04T06:06:00;21.57;;;4.77;;
11422;SDS011;5768;51.476;7.210;2023-02-04T06:11:02;20.17;;;4.27;;
11422;SDS011;5768;51.476;7.210;2023-02-04T06:16:06;17.27;;;3.67;;
11422;SDS011;5768;51.476;7.210;2023-02-04T06:21:08;19.23;;;4.07;;
11422;SDS011;5768;51.476;7.210;2023-02-04T06:26:10;16.67;;;4.17;;
11422;SDS011;5768;51.476;7.210;2023-02-04T06:31:14;15.00;;;4.27;;
11422;SDS011;5768;51.476;7.210;2023-02-04T06:36:17;18.50;;;4.07;;
11422;SDS011;5768;51.476;7.210;2023-02-04T06:41:20;15.17;;;3.90;;
11422;SDS011;5768;51.476;7.210;2023-02-04T06:46:25;22.30;;;4.83;;
11422;SDS011;5768;51.476;7.210;2023-02-04T06:51:27;16.97;;;4.10;;
11422;SDS011;5768;51.476;7.210;2023-02-04T06:56:29;21.83;;;3.90;;
11422;SDS011;5768;51.476;7.210;2023-02-04T07:01:33;22.97;;;4.07;;
11422;SDS011;5768;51.476;7.210;2023-02-04T07:06:35;16.67;;;3.90;;
11422;SDS011;5768;51.476;7.210;2023-02-04T07:11:37;17.23;;;4.20;;
11422;SDS011;5768;51.476;7.210;2023-02-04T07:16:41;16.57;;;4.20;;
11422;SDS011;5768;51.476;7.210;2023-02-04T07:21:43;18.00;;;4.27;;
11422;SDS011;5768;51.476;7.210;2023-02-04T07:26:45;19.80;;;4.37;;
11422;SDS011;5768;51.476;7.210;2023-02-04T07:31:48;20.63;;;4.20;;
11422;SDS011;5768;51.476;7.210;2023-02-04T07:36:51;23.23;;;4.50;;
11422;SDS011;5768;51.476;7.210;2023-02-04T07:41:54;17.20;;;4.43;;
11422;SDS011;5768;51.476;7.210;2023-02-04T07:46:57;18.73;;;4.17;;
11422;SDS011;5768;51.476;7.210;2023-02-04T07:51:59;18.10;;;4.67;;
11422;SDS011;5768;51.476;7.210;2023-02-04T07:57:02;29.47;;;12.53;;
11422;SDS011;5768;51.476;7.210;2023-02-04T08:02:06;24.80;;;4.77;;
11422;SDS011;5768;51.476;7.210;2023-02-04T08:07:12;17.57;;;4.30;;
11422;SDS011;5768;51.476;7.210;2023-02-04T08:12:14;18.60;;;4.33;;
11422;SDS011;5768;51.476;7.210;2023-02-04T08:17:18;20.40;;;4.97;;
11422;SDS011;5768;51.476;7.210;2023-02-04T08:22:20;21.60;;;4.67;;
11422;SDS011;5768;51.476;7.210;2023-02-04T08:27:23;17.83;;;4.37;;
11422;SDS011;5768;51.476;7.210;2023-02-04T08:32:27;14.73;;;4.40;;
11422;SDS011;5768;51.476;7.210;2023-02-04T08:37:30;14.83;;;4.73;;
11422;SDS011;5768;51.476;7.210;2023-02-04T08:42:32;18.80;;;5.40;;
11422;SDS011;5768;51.476;7.210;2023-02-04T08:47:39;22.57;;;5.33;;
11422;SDS011;5768;51.476;7.210;2023-02-04T08:52:41;21.80;;;5.63;;
11422;SDS011;5768;51.476;7.210;2023-02-04T08:57:44;23.40;;;4.93;;
11422;SDS011;5768;51.476;7.210;2023-02-04T09:02:47;23.80;;;5.57;;
11422;SDS011;5768;51.476;7.210;2023-02-04T09:07:49;22.00;;;5.77;;
11422;SDS011;5768;51.476;7.210;2023-02-04T09:12:59;19.43;;;4.63;;
11422;SDS011;5768;51.476;7.210;2023-02-04T09:18:09;21.57;;;4.93;;
11422;SDS011;5768;51.476;7.210;2023-02-04T09:23:17;22.13;;;4.43;;
11422;SDS011;5768;51.476;7.210;2023-02-04T09:28:20;19.17;;;4.50;;
11422;SDS011;5768;51.476;7.210;2023-02-04T09:33:27;27.07;;;5.53;;
11422;SDS011;5768;51.476;7.210;2023-02-04T09:38:29;19.93;;;4.90;;
11422;SDS011;5768;51.476;7.210;2023-02-04T09:43:33;20.13;;;5.03;;
11422;SDS011;5768;51.476;7.210;2023-02-04T09:48:40;20.07;;;5.40;;
11422;SDS011;5768;51.476;7.210;2023-02-04T09:53:43;23.70;;;5.60;;
11422;SDS011;5768;51.476;7.210;2023-02-04T09:58:51;20.80;;;5.63;;
11422;SDS011;5768;51.476;7.210;2023-02-04T10:03:55;24.23;;;5.40;;
11422;SDS011;5768;51.476;7.210;2023-02-04T10:09:02;21.13;;;5.37;;
11422;SDS011;5768;51.476;7.210;2023-02-04T10:14:05;22.60;;;5.57;;
11422;SDS011;5768;51.476;7.210;2023-02-04T10:19:16;22.43;;;6.50;;
11422;SDS011;5768;51.476;7.210;2023-02-04T10:24:19;27.27;;;5.87;;
11422;SDS011;5768;51.476;7.210;2023-02-04T10:29:25;22.37;;;6.17;;
11422;SDS011;5768;51.476;7.210;2023-02-04T10:34:32;22.10;;;6.57;;
11422;SDS011;5768;51.476;7.210;2023-02-04T10:39:41;21.40;;;6.30;;
11422;SDS011;5768;51.476;7.210;2023-02-04T10:44:45;20.77;;;6.00;;
11422;SDS011;5768;51.476;7.210;2023-02-04T10:49:53;27.67;;;7.23;;
11422;SDS011;5768;51.476;7.210;2023-02-04T10:55:02;21.63;;;6.53;;
11422;SDS011;5768;51.476;7.210;2023-02-04T11:00:13;26.38;;;6.75;;
11422;SDS011;5768;51.476;7.210;2023-02-04T11:05:20;19.03;;;6.27;;
11422;SDS011;5768;51.476;7.210;2023-02-04T11:10:30;19.27;;;5.45;;
11422;SDS011;5768;51.476;7.210;2023-02-04T11:15:35;18.20;;;6.03;;
11422;SDS011;5768;51.476;7.210;2023-02-04T11:20:43;23.30;;;6.30;;
11422;SDS011;5768;51.476;7.210;2023-02-04T11:25:45;21.03;;;7.03;;
11422;SDS011;5768;51.476;7.210;2023-02-04T11:30:56;25.13;;;7.23;;
11422;SDS011;5768;51.476;7.210;2023-02-04T11:36:02;23.48;;;7.30;;
11422;SDS011;5768;51.476;7.210;2023-02-04T11:41:11;24.38;;;7.97;;
11422;SDS011;5768;51.476;7.210;2023-02-04T11:46:24;17.33;;;7.47;;
11422;SDS011;5768;51.476;7.210;2023-02-04T11:51:34;18.48;;;7.47;;
11422;SDS011;5768;51.476;7.210;2023-02-04T11:56:36;19.90;;;7.35;;
11422;SDS011;5768;51.476;7.210;2023-02-04T12:01:39;16.17;;;6.70;;
11422;SDS011;5768;51.476;7.210;2023-02-04T12:06:43;21.30;;;6.77;;
11422;SDS011;5768;51.476;7.210;2023-02-04T12:11:50;16.40;;;6.50;;
11422;SDS011;5768;51.476;7.210;2023-02-04T12:16:54;23.95;;;7.18;;
11422;SDS011;5768;51.476;7.210;2023-02-04T12:21:57;19.60;;;6.30;;
11422;SDS011;5768;51.476;7.210;2023-02-04T12:27:03;17.55;;;7.15;;
11422;SDS011;5768;51.476;7.210;2023-02-04T12:32:05;16.33;;;6.80;;
11422;SDS011;5768;51.476;7.210;2023-02-04T12:37:08;20.20;;;7.40;;
11422;SDS011;5768;51.476;7.210;2023-02-04T12:42:10;16.13;;;6.30;;
11422;SDS011;5768;51.476;7.210;2023-02-04T12:47:13;18.37;;;6.50;;
11422;SDS011;5768;51.476;7.210;2023-02-04T12:52:17;18.97;;;6.23;;
11422;SDS011;5768;51.476;7.210;2023-02-04T12:57:28;18.40;;;6.50;;
11422;SDS011;5768;51.476;7.210;2023-02-04T13:02:30;21.13;;;6.47;;
11422;SDS011;5768;51.476;7.210;2023-02-04T13:07:34;17.40;;;6.57;;
11422;SDS011;5768;51.476;7.210;2023-02-04T13:12:37;13.67;;;4.63;;
11422;SDS011;5768;51.476;7.210;2023-02-04T13:17:40;16.88;;;5.85;;
11422;SDS011;5768;51.476;7.210;2023-02-04T13:22:43;21.17;;;6.40;;
11422;SDS011;5768;51.476;7.210;2023-02-04T13:27:46;18.00;;;5.87;;
11422;SDS011;5768;51.476;7.210;2023-02-04T13:32:48;16.63;;;6.30;;
11422;SDS011;5768;51.476;7.210;2023-02-04T13:37:52;19.00;;;6.30;;
11422;SDS011;5768;51.476;7.210;2023-02-04T13:42:54;15.60;;;5.47;;
11422;SDS011;5768;51.476;7.210;2023-02-04T13:47:57;14.17;;;5.53;;
11422;SDS011;5768;51.476;7.210;2023-02-04T13:53:00;18.20;;;5.70;;
11422;SDS011;5768;51.476;7.210;2023-02-04T13:58:02;13.20;;;5.40;;
11422;SDS011;5768;51.476;7.210;2023-02-04T14:03:04;12.70;;;5.10;;
11422;SDS011;5768;51.476;7.210;2023-02-04T14:08:08;11.73;;;5.50;;
11422;SDS011;5768;51.476;7.210;2023-02-04T14:13:10;14.70;;;5.60;;
11422;SDS011;5768;51.476;7.210;2023-02-04T14:18:15;17.63;;;6.30;;
11422;SDS011;5768;51.476;7.210;2023-02-04T14:23:19;15.63;;;6.47;;
11422;SDS011;5768;51.476;7.210;2023-02-04T14:28:21;16.50;;;6.93;;
11422;SDS011;5768;51.476;7.210;2023-02-04T14:33:26;18.33;;;6.40;;
11422;SDS011;5768;51.476;7.210;2023-02-04T14:38:30;19.73;;;7.23;;
11422;SDS011;5768;51.476;7.210;2023-02-04T14:43:33;15.83;;;5.80;;
11422;SDS011;5768;51.476;7.210;2023-02-04T14:48:36;16.03;;;6.50;;
11422;SDS011;5768;51.476;7.210;2023-02-04T14:53:39;22.00;;;6.87;;
11422;SDS011;5768;51.476;7.210;2023-02-04T14:58:42;14.53;;;6.30;;
11422;SDS011;5768;51.476;7.210;2023-02-04T15:03:44;14.70;;;6.53;;
11422;SDS011;5768;51.476;7.210;2023-02-04T15:08:48;20.43;;;7.00;;
11422;SDS011;5768;51.476;7.210;2023-02-04T15:13:50;17.95;;;6.25;;
11422;SDS011;5768;51.476;7.210;2023-02-04T15:18:52;17.63;;;5.87;;
11422;SDS011;5768;51.476;7.210;2023-02-04T15:23:56;17.63;;;5.90;;
11422;SDS011;5768;51.476;7.210;2023-02-04T15:29:00;15.93;;;6.03;;
11422;SDS011;5768;51.476;7.210;2023-02-04T15:34:04;15.23;;;6.20;;
11422;SDS011;5768;51.476;7.210;2023-02-04T15:39:07;15.97;;;6.40;;
11422;SDS011;5768;51.476;7.210;2023-02-04T15:44:10;18.10;;;6.17;;
11422;SDS011;5768;51.476;7.210;2023-02-04T15:49:12;12.10;;;5.10;;
11422;SDS011;5768;51.476;7.210;2023-02-04T15:54:15;17.83;;;6.70;;
11422;SDS011;5768;51.476;7.210;2023-02-04T15:59:17;15.87;;;6.07;;
11422;SDS011;5768;51.476;7.210;2023-02-04T16:04:20;14.47;;;4.90;;
11422;SDS011;5768;51.476;7.210;2023-02-04T16:09:23;18.87;;;5.63;;
11422;SDS011;5768;51.476;7.210;2023-02-04T16:14:25;13.93;;;5.30;;
11422;SDS011;5768;51.476;7.210;2023-02-04T16:19:28;16.00;;;6.43;;
11422;SDS011;5768;51.476;7.210;2023-02-04T16:24:32;16.10;;;5.70;;
11422;SDS011;5768;51.476;7.210;2023-02-04T16:29:34;16.17;;;5.87;;
11422;SDS011;5768;51.476;7.210;2023-02-04T16:34:36;19.73;;;6.47;;
11422;SDS011;5768;51.476;7.210;2023-02-04T16:39:40;17.87;;;6.00;;
11422;SDS011;5768;51.476;7.210;2023-02-04T16:44:44;16.83;;;6.33;;
11422;SDS011;5768;51.476;7.210;2023-02-04T16:49:46;15.93;;;6.73;;
11422;SDS011;5768;51.476;7.210;2023-02-04T16:54:50;17.30;;;6.60;;
11422;SDS011;5768;51.476;7.210;2023-02-04T16:59:52;21.60;;;7.27;;
11422;SDS011;5768;51.476;7.210;2023-02-04T17:04:54;17.10;;;6.57;;
11422;SDS011;5768;51.476;7.210;2023-02-04T17:09:57;18.67;;;6.43;;
11422;SDS011;5768;51.476;7.210;2023-02-04T17:15:00;16.13;;;6.23;;
11422;SDS011;5768;51.476;7.210;2023-02-04T17:20:02;17.97;;;6.23;;
11422;SDS011;5768;51.476;7.210;2023-02-04T17:25:06;21.40;;;8.13;;
11422;SDS011;5768;51.476;7.210;2023-02-04T17:30:08;24.77;;;7.37;;
11422;SDS011;5768;51.476;7.210;2023-02-04T17:35:12;19.50;;;7.10;;
11422;SDS011;5768;51.476;7.210;2023-02-04T17:40:18;22.93;;;7.70;;
11422;SDS011;5768;51.476;7.210;2023-02-04T17:45:20;23.17;;;8.20;;
11422;SDS011;5768;51.476;7.210;2023-02-04T17:50:23;23.43;;;8.10;;
11422;SDS011;5768;51.476;7.210;2023-02-04T17:55:28;24.33;;;9.60;;
11422;SDS011;5768;51.476;7.210;2023-02-04T18:00:32;28.60;;;13.57;;
11422;SDS011;5768;51.476;7.210;2023-02-04T18:05:34;24.30;;;8.20;;
11422;SDS011;5768;51.476;7.210;2023-02-04T18:10:39;23.97;;;8.47;;
11422;SDS011;5768;51.476;7.210;2023-02-04T18:15:44;25.93;;;8.37;;
11422;SDS011;5768;51.476;7.210;2023-02-04T18:20:52;19.90;;;8.17;;
11422;SDS011;5768;51.476;7.210;2023-02-04T18:26:05;25.60;;;9.10;;
11422;SDS011;5768;51.476;7.210;2023-02-04T18:31:24;22.00;;;8.73;;
11422;SDS011;5768;51.476;7.210;2023-02-04T18:36:39;21.33;;;7.77;;
11422;SDS011;5768;51.476;7.210;2023-02-04T18:41:44;19.60;;;6.40;;
11422;SDS011;5768;51.476;7.210;2023-02-04T18:46:51;17.27;;;6.50;;
11422;SDS011;5768;51.476;7.210;2023-02-04T18:51:54;19.97;;;6.70;;
11422;SDS011;5768;51.476;7.210;2023-02-04T18:57:25;20.67;;;6.70;;
11422;SDS011;5768;51.476;7.210;2023-02-04T19:02:38;19.23;;;7.00;;
11422;SDS011;5768;51.476;7.210;2023-02-04T19:07:48;20.60;;;7.80;;
11422;SDS011;5768;51.476;7.210;2023-02-04T19:12:52;21.27;;;9.27;;
11422;SDS011;5768;51.476;7.210;2023-02-04T19:17:58;19.27;;;6.57;;
11422;SDS011;5768;51.476;7.210;2023-02-04T19:23:22;20.80;;;9.50;;
11422;SDS011;5768;51.476;7.210;2023-02-04T19:28:27;23.20;;;7.87;;
11422;SDS011;5768;51.476;7.210;2023-02-04T19:33:34;22.00;;;7.80;;
11422;SDS011;5768;51.476;7.210;2023-02-04T19:38:39;17.53;;;7.10;;
11422;SDS011;5768;51.476;7.210;2023-02-04T19:43:46;18.10;;;7.33;;
11422;SDS011;5768;51.476;7.210;2023-02-04T19:48:49;14.33;;;7.20;;
11422;SDS011;5768;51.476;7.210;2023-02-04T19:53:53;15.90;;;6.97;;
11422;SDS011;5768;51.476;7.210;2023-02-04T19:59:12;18.07;;;6.50;;
11422;SDS011;5768;51.476;7.210;2023-02-04T20:04:26;16.83;;;7.00;;
11422;SDS011;5768;51.476;7.210;2023-02-04T20:09:36;15.10;;;5.90;;
11422;SDS011;5768;51.476;7.210;2023-02-04T20:14:44;16.67;;;6.93;;
11422;SDS011;5768;51.476;7.210;2023-02-04T20:19:49;24.00;;;7.47;;
11422;SDS011;5768;51.476;7.210;2023-02-04T20:24:53;20.47;;;8.13;;
11422;SDS011;5768;51.476;7.210;2023-02-04T20:29:59;17.80;;;7.37;;
11422;SDS011;5768;51.476;7.210;2023-02-04T20:41:18;16.70;;;7.50;;
11422;SDS011;5768;51.476;7.210;2023-02-04T20:46:24;16.73;;;7.37;;
11422;SDS011;5768;51.476;7.210;2023-02-04T20:51:27;18.27;;;7.53;;
11422;SDS011;5768;51.476;7.210;2023-02-04T20:56:30;18.93;;;7.70;;
11422;SDS011;5768;51.476;7.210;2023-02-04T21:01:38;18.03;;;7.13;;
11422;SDS011;5768;51.476;7.210;2023-02-04T21:06:43;18.20;;;7.57;;
11422;SDS011;5768;51.476;7.210;2023-02-04T21:11:46;18.70;;;7.50;;
11422;SDS011;5768;51.476;7.210;2023-02-04T21:16:49;16.60;;;8.07;;
11422;SDS011;5768;51.476;7.210;2023-02-04T21:21:53;22.57;;;9.37;;
11422;SDS011;5768;51.476;7.210;2023-02-04T21:26:56;23.60;;;9.47;;
11422;SDS011;5768;51.476;7.210;2023-02-04T21:32:00;20.87;;;9.50;;
11422;SDS011;5768;51.476;7.210;2023-02-04T21:37:02;24.77;;;10.33;;
11422;SDS011;5768;51.476;7.210;2023-02-04T21:42:04;21.87;;;10.43;;
11422;SDS011;5768;51.476;7.210;2023-02-04T21:47:14;18.43;;;8.77;;
11422;SDS011;5768;51.476;7.210;2023-02-04T21:52:16;20.97;;;9.90;;
11422;SDS011;5768;51.476;7.210;2023-02-04T21:57:19;25.27;;;10.30;;
11422;SDS011;5768;51.476;7.210;2023-02-04T22:02:22;26.00;;;11.90;;
11422;SDS011;5768;51.476;7.210;2023-02-04T22:07:25;26.00;;;12.93;;
11422;SDS011;5768;51.476;7.210;2023-02-04T22:12:27;21.03;;;10.63;;
11422;SDS011;5768;51.476;7.210;2023-02-04T22:17:30;23.80;;;9.63;;
11422;SDS011;5768;51.476;7.210;2023-02-04T22:22:32;19.10;;;9.13;;
11422;SDS011;5768;51.476;7.210;2023-02-04T22:27:35;23.47;;;9.83;;
11422;SDS011;5768;51.476;7.210;2023-02-04T22:32:38;20.53;;;10.17;;
11422;SDS011;5768;51.476;7.210;2023-02-04T22:37:40;20.77;;;9.67;;
11422;SDS011;5768;51.476;7.210;2023-02-04T22:42:43;27.37;;;10.90;;
11422;SDS011;5768;51.476;7.210;2023-02-04T22:47:47;25.53;;;10.33;;
11422;SDS011;5768;51.476;7.210;2023-02-04T22:52:49;20.83;;;9.93;;
11422;SDS011;5768;51.476;7.210;2023-02-04T22:57:52;19.77;;;9.87;;
11422;SDS011;5768;51.476;7.210;2023-02-04T23:02:56;21.93;;;9.60;;
11422;SDS011;5768;51.476;7.210;2023-02-04T23:07:58;20.80;;;9.97;;
11422;SDS011;5768;51.476;7.210;2023-02-04T23:13:01;19.10;;;9.77;;
11422;SDS011;5768;51.476;7.210;2023-02-04T23:18:04;20.23;;;9.77;;
11422;SDS011;5768;51.476;7.210;2023-02-04T23:23:06;21.97;;;10.17;;
11422;SDS011;5768;51.476;7.210;2023-02-04T23:28:14;23.17;;;10.63;;
11422;SDS011;5768;51.476;7.210;2023-02-04T23:33:17;23.70;;;10.40;;
11422;SDS011;5768;51.476;7.210;2023-02-04T23:38:19;24.13;;;11.57;;
11422;SDS011;5768;51.476;7.210;2023-02-04T23:43:21;23.17;;;10.77;;
11422;SDS011;5768;51.476;7.210;2023-02-04T23:48:25;22.57;;;10.60;;
11422;SDS011;5768;51.476;7.210;2023-02-04T23:53:27;21.70;;;11.30;;
11422;SDS011;5768;51.476;7.210;2023-02-04T23:58:29;20.53;;;10.97;;
